Weather at Cook Airport

Public forecast

Using degrees Celsius for public forecast. Weather courtesy of forecast.io.

Closest aviation weather report (METAR) to Cook Airport

Closest report is Forrest Airport, 119.0 nm (220.3 km) W. Retrieved 2021/01/25 01:30 UTC (1 hour ago):

YFRT 250130Z AUTO 20019KT 9999 // BKN018 OVC055 23/18 Q1005

Closest aviation forecast (TAF) to Cook Airport

Closest forecast is Forrest Airport, 119.0 nm (220.3 km) W. Retrieved 2021-01-25 02:00 UTC (40 minutes ago):

TAF YFRT 250040Z 2502/2514 18018KT 9999 BKN025 FM250300 18018KT 9999 BKN050 FM251100 15014KT 9999 SCT045